Time;durP1;ratioP1;P1;durP2;ratioP2;P2;SDS_P1;SDS_P2;PMS_P1;PMS_P2;Temp;Humidity;BMP_temperature;BMP_pressure;BME280_temperature;BME280_humidity;BME280_pressure;Samples;Min_cycle;Max_cycle;Signal;HPM_P1;HPM_P2
2023/10/12 00:01:58;;;;;;;23.27;4.03;;;;;;;;;;4998192;28;20458;-80
2023/10/12 00:04:25;;;;;;;20.73;3.67;;;;;;;;;;4994145;28;20596;-81
2023/10/12 00:06:51;;;;;;;17.75;2.97;;;;;;;;;;4985557;28;20089;-80
2023/10/12 00:09:20;;;;;;;14.25;3.05;;;;;;;;;;4981529;28;20379;-83
2023/10/12 00:11:57;;;;;;;26.90;3.00;;;;;;;;;;4996156;28;20042;-82
2023/10/12 00:14:24;;;;;;;19.33;3.35;;;;;;;;;;4982413;28;20050;-83
2023/10/12 00:16:51;;;;;;;15.00;2.60;;;;;;;;;;5001561;28;20049;-83
2023/10/12 00:19:17;;;;;;;23.02;2.83;;;;;;;;;;4982996;28;20383;-79
2023/10/12 00:21:43;;;;;;;24.65;3.00;;;;;;;;;;4969750;28;20382;-80
2023/10/12 00:24:17;;;;;;;23.77;2.65;;;;;;;;;;4988113;28;20045;-81
2023/10/12 00:26:43;;;;;;;30.35;3.25;;;;;;;;;;4993958;28;20118;-81
2023/10/12 00:29:10;;;;;;;24.27;2.95;;;;;;;;;;4967816;28;20038;-81
2023/10/12 00:31:42;;;;;;;23.10;2.42;;;;;;;;;;4996403;28;20035;-81
2023/10/12 00:34:10;;;;;;;19.75;2.40;;;;;;;;;;4986325;28;20621;-81
2023/10/12 00:36:37;;;;;;;16.67;2.85;;;;;;;;;;4986270;28;20065;-83
2023/10/12 00:39:09;;;;;;;16.58;2.72;;;;;;;;;;4971005;28;20184;-81
2023/10/12 00:41:45;;;;;;;25.02;3.47;;;;;;;;;;4986733;28;20053;-80
2023/10/12 00:44:18;;;;;;;21.77;2.53;;;;;;;;;;4988357;28;20042;-81
2023/10/12 00:49:26;;;;;;;11.10;2.17;;;;;;;;;;4997146;28;20128;-83
2023/10/12 00:52:08;;;;;;;17.60;2.80;;;;;;;;;;4980521;28;20073;-82
2023/10/12 00:57:03;;;;;;;14.95;2.72;;;;;;;;;;4998635;28;20509;-82
2023/10/12 00:59:34;;;;;;;20.40;2.83;;;;;;;;;;4970046;28;20049;-82
2023/10/12 01:02:12;;;;;;;12.57;2.45;;;;;;;;;;5000359;28;20140;-81
2023/10/12 01:04:41;;;;;;;19.77;2.90;;;;;;;;;;4987508;28;20038;-81
2023/10/12 01:07:10;;;;;;;13.38;2.33;;;;;;;;;;5000266;28;20389;-81
2023/10/12 01:09:42;;;;;;;16.75;2.90;;;;;;;;;;4981600;28;20166;-81
2023/10/12 01:12:16;;;;;;;17.00;1.85;;;;;;;;;;5000209;28;20060;-81
2023/10/12 01:14:43;;;;;;;11.98;2.30;;;;;;;;;;4983935;28;20034;-80
2023/10/12 01:17:17;;;;;;;20.80;2.75;;;;;;;;;;4989853;28;20045;-81
2023/10/12 01:19:46;;;;;;;15.77;2.92;;;;;;;;;;4994891;28;20133;-82
2023/10/12 01:22:25;;;;;;;15.48;2.08;;;;;;;;;;4971743;28;20168;-82
2023/10/12 01:27:21;;;;;;;14.52;3.13;;;;;;;;;;4998244;28;20049;-81
2023/10/12 01:29:47;;;;;;;20.52;2.53;;;;;;;;;;5002368;28;20065;-82
2023/10/12 01:34:53;;;;;;;13.43;2.40;;;;;;;;;;4995791;28;20045;-81
2023/10/12 01:37:26;;;;;;;15.73;2.17;;;;;;;;;;4992909;28;20049;-83
2023/10/12 01:45:19;;;;;;;19.75;2.65;;;;;;;;;;5006901;28;20552;-82
2023/10/12 01:50:33;;;;;;;11.40;2.40;;;;;;;;;;5000946;28;20041;-82
2023/10/12 01:53:01;;;;;;;20.50;3.25;;;;;;;;;;4996838;28;20048;-82
2023/10/12 01:55:30;;;;;;;20.83;2.55;;;;;;;;;;4990662;28;20041;-82
2023/10/12 01:57:57;;;;;;;13.18;2.63;;;;;;;;;;5007611;28;20485;-82
2023/10/12 02:03:17;;;;;;;13.63;1.95;;;;;;;;;;4979918;28;20053;-82
2023/10/12 02:05:47;;;;;;;13.85;1.90;;;;;;;;;;4994963;28;20560;-81
2023/10/12 02:08:17;;;;;;;14.27;3.00;;;;;;;;;;5022902;28;20041;-82
2023/10/12 02:11:06;;;;;;;18.23;2.35;;;;;;;;;;5009911;28;20589;-82
2023/10/12 02:13:34;;;;;;;14.07;2.10;;;;;;;;;;5000130;28;20121;-82
2023/10/12 02:16:01;;;;;;;14.20;2.63;;;;;;;;;;5004274;28;20073;-82
2023/10/12 02:18:30;;;;;;;12.23;2.80;;;;;;;;;;4977084;28;20080;-82
2023/10/12 02:21:07;;;;;;;12.90;2.10;;;;;;;;;;5003069;28;20042;-82
2023/10/12 02:23:36;;;;;;;15.63;2.22;;;;;;;;;;5003255;28;20144;-81
2023/10/12 02:28:53;;;;;;;18.02;2.10;;;;;;;;;;5003931;28;20045;-81
2023/10/12 02:31:20;;;;;;;14.68;2.10;;;;;;;;;;4989840;28;20144;-82
2023/10/12 02:33:46;;;;;;;11.70;2.45;;;;;;;;;;4990387;28;20077;-81
2023/10/12 02:36:13;;;;;;;21.33;2.70;;;;;;;;;;4986512;28;20053;-82
2023/10/12 02:38:42;;;;;;;11.13;2.22;;;;;;;;;;4998139;28;20480;-83
2023/10/12 02:41:12;;;;;;;15.25;2.20;;;;;;;;;;4992443;28;20044;-82
2023/10/12 02:43:40;;;;;;;10.27;1.83;;;;;;;;;;4995424;28;20073;-83
2023/10/12 02:46:21;;;;;;;16.70;2.40;;;;;;;;;;4992533;28;20046;-82
2023/10/12 02:48:47;;;;;;;10.65;1.98;;;;;;;;;;5006753;28;20073;-81
2023/10/12 02:51:16;;;;;;;14.95;2.15;;;;;;;;;;5005600;28;20075;-82
2023/10/12 02:53:44;;;;;;;10.77;2.33;;;;;;;;;;4989010;28;20159;-82
2023/10/12 02:56:11;;;;;;;12.85;2.38;;;;;;;;;;4979514;28;20048;-82
2023/10/12 02:58:37;;;;;;;10.88;2.10;;;;;;;;;;4970355;28;20053;-82
2023/10/12 03:01:18;;;;;;;11.40;1.90;;;;;;;;;;4992077;28;20041;-83
2023/10/12 03:03:54;;;;;;;20.90;1.85;;;;;;;;;;4998827;28;20156;-82
2023/10/12 03:06:24;;;;;;;11.43;1.88;;;;;;;;;;4985766;28;20041;-82
2023/10/12 03:11:26;;;;;;;14.55;2.25;;;;;;;;;;5003300;28;20195;-81
2023/10/12 03:16:41;;;;;;;18.38;2.17;;;;;;;;;;4988529;28;20054;-82
2023/10/12 03:19:26;;;;;;;9.00;1.60;;;;;;;;;;5002777;28;23253;-82
2023/10/12 03:21:52;;;;;;;15.27;2.05;;;;;;;;;;5006516;28;20519;-82
2023/10/12 03:24:29;;;;;;;11.50;2.38;;;;;;;;;;4999548;28;20140;-82
2023/10/12 03:27:10;;;;;;;15.40;2.25;;;;;;;;;;5003475;28;20041;-82
2023/10/12 03:29:43;;;;;;;16.02;2.70;;;;;;;;;;5002363;28;20092;-81
2023/10/12 03:32:11;;;;;;;14.18;2.30;;;;;;;;;;4994088;28;20466;-82
2023/10/12 03:34:53;;;;;;;13.82;2.17;;;;;;;;;;4986018;28;20037;-82
2023/10/12 03:42:55;;;;;;;18.65;3.22;;;;;;;;;;4997576;28;20042;-82
2023/10/12 03:45:27;;;;;;;15.23;2.65;;;;;;;;;;5022464;28;20469;-82
2023/10/12 03:53:26;;;;;;;12.93;2.13;;;;;;;;;;5004789;28;19921;-82
2023/10/12 03:56:03;;;;;;;10.25;2.17;;;;;;;;;;4996964;28;20496;-81
2023/10/12 03:58:37;;;;;;;13.60;2.40;;;;;;;;;;4988107;28;20044;-81
2023/10/12 04:01:10;;;;;;;10.82;2.15;;;;;;;;;;5006017;28;20057;-81
2023/10/12 04:03:38;;;;;;;14.60;2.50;;;;;;;;;;5004791;28;20056;-81
2023/10/12 04:06:23;;;;;;;10.55;2.13;;;;;;;;;;4999002;28;21761;-80
2023/10/12 04:08:54;;;;;;;9.00;2.08;;;;;;;;;;5004113;28;20049;-81
2023/10/12 04:17:09;;;;;;;11.57;2.28;;;;;;;;;;4957785;28;20043;-81
2023/10/12 04:19:42;;;;;;;14.10;1.88;;;;;;;;;;4980398;28;20069;-80
2023/10/12 04:22:25;;;;;;;13.93;2.13;;;;;;;;;;4979669;28;20477;-80
2023/10/12 04:24:54;;;;;;;11.13;2.72;;;;;;;;;;4992964;28;20065;-81
2023/10/12 04:27:24;;;;;;;18.42;3.38;;;;;;;;;;5001733;28;20057;-80
2023/10/12 04:29:56;;;;;;;12.00;1.92;;;;;;;;;;5006558;28;20068;-80
2023/10/12 04:32:37;;;;;;;16.15;2.40;;;;;;;;;;5005881;28;20661;-80
2023/10/12 04:35:14;;;;;;;10.38;2.30;;;;;;;;;;5001161;28;20124;-81
2023/10/12 04:37:40;;;;;;;12.85;2.00;;;;;;;;;;5004929;28;20056;-81
2023/10/12 04:40:32;;;;;;;15.98;2.08;;;;;;;;;;4986019;28;20041;-81
2023/10/12 04:43:00;;;;;;;20.20;2.30;;;;;;;;;;5001023;28;20166;-81
2023/10/12 04:45:29;;;;;;;13.73;2.20;;;;;;;;;;4985101;28;20041;-81
2023/10/12 04:48:08;;;;;;;10.50;2.10;;;;;;;;;;5000965;28;20052;-80
2023/10/12 04:50:44;;;;;;;14.13;2.10;;;;;;;;;;5004103;28;20041;-81
2023/10/12 04:53:12;;;;;;;14.27;2.25;;;;;;;;;;5007261;28;20045;-81
2023/10/12 04:55:47;;;;;;;10.00;1.73;;;;;;;;;;4990959;28;20537;-82
2023/10/12 05:00:55;;;;;;;8.68;1.90;;;;;;;;;;4989723;28;20057;-81
2023/10/12 05:03:26;;;;;;;18.85;2.63;;;;;;;;;;5003930;28;20135;-82
2023/10/12 05:06:09;;;;;;;13.90;2.47;;;;;;;;;;4990191;28;20034;-82
2023/10/12 05:08:36;;;;;;;7.90;1.70;;;;;;;;;;4999823;28;20087;-83
2023/10/12 05:11:06;;;;;;;8.57;1.90;;;;;;;;;;5001570;28;20088;-81
2023/10/12 05:13:33;;;;;;;17.63;3.22;;;;;;;;;;4988084;28;20064;-82
2023/10/12 05:16:06;;;;;;;13.50;2.08;;;;;;;;;;4968632;28;20389;-81
2023/10/12 05:18:32;;;;;;;16.33;2.57;;;;;;;;;;4988022;28;20132;-81
2023/10/12 05:21:00;;;;;;;11.68;2.10;;;;;;;;;;4988813;28;20042;-82
2023/10/12 05:23:29;;;;;;;18.02;2.42;;;;;;;;;;4993112;28;20038;-83
2023/10/12 05:28:27;;;;;;;12.63;2.20;;;;;;;;;;5012422;28;20049;-81
2023/10/12 05:30:59;;;;;;;13.63;2.20;;;;;;;;;;5006022;28;20124;-82
2023/10/12 05:36:03;;;;;;;10.57;2.28;;;;;;;;;;5014498;28;20053;-82
2023/10/12 05:38:36;;;;;;;13.77;3.20;;;;;;;;;;4996569;28;20095;-82
2023/10/12 05:41:34;;;;;;;10.70;2.15;;;;;;;;;;5006425;28;20396;-82
2023/10/12 05:44:08;;;;;;;15.07;2.22;;;;;;;;;;4990759;28;20041;-83
2023/10/12 05:46:40;;;;;;;15.15;2.38;;;;;;;;;;4993935;28;20049;-83
2023/10/12 05:49:12;;;;;;;8.00;2.00;;;;;;;;;;5003635;28;20045;-82
2023/10/12 05:51:39;;;;;;;8.95;1.98;;;;;;;;;;5008394;28;20104;-81
2023/10/12 05:54:07;;;;;;;16.08;2.83;;;;;;;;;;5004613;28;20034;-82
2023/10/12 05:56:36;;;;;;;8.90;2.13;;;;;;;;;;4977748;28;20075;-82
2023/10/12 05:59:12;;;;;;;17.33;2.58;;;;;;;;;;4990321;28;20045;-81
2023/10/12 06:01:39;;;;;;;13.20;2.15;;;;;;;;;;4992001;28;20129;-81
2023/10/12 06:04:08;;;;;;;5.95;1.95;;;;;;;;;;5008153;28;20073;-82
2023/10/12 06:06:38;;;;;;;7.45;1.75;;;;;;;;;;5004899;28;20108;-82
2023/10/12 06:09:11;;;;;;;11.50;1.90;;;;;;;;;;5009683;28;20557;-80
2023/10/12 06:11:40;;;;;;;12.30;2.10;;;;;;;;;;5010973;28;20041;-82
2023/10/12 06:14:07;;;;;;;8.80;2.60;;;;;;;;;;5006994;28;20037;-82
2023/10/12 06:16:40;;;;;;;13.80;2.30;;;;;;;;;;4992718;28;20079;-82
2023/10/12 06:19:08;;;;;;;10.27;2.50;;;;;;;;;;4995463;28;20128;-81
2023/10/12 06:21:42;;;;;;;10.40;2.00;;;;;;;;;;4974149;28;20357;-83
2023/10/12 06:24:11;;;;;;;13.10;2.30;;;;;;;;;;4992770;28;20034;-82
2023/10/12 06:26:38;;;;;;;15.10;2.45;;;;;;;;;;4997141;28;20067;-82
2023/10/12 06:29:08;;;;;;;10.15;2.72;;;;;;;;;;4998260;28;20447;-82
2023/10/12 06:31:34;;;;;;;10.82;2.10;;;;;;;;;;4983180;28;20033;-82
2023/10/12 06:34:04;;;;;;;10.07;2.05;;;;;;;;;;5010556;28;20175;-82
2023/10/12 06:36:37;;;;;;;9.38;2.20;;;;;;;;;;5012476;28;20065;-84
2023/10/12 06:46:54;;;;;;;16.60;2.50;;;;;;;;;;4994919;28;20049;-85
2023/10/12 06:49:22;;;;;;;17.15;2.67;;;;;;;;;;5026078;28;20141;-85
2023/10/12 06:52:01;;;;;;;12.98;2.70;;;;;;;;;;5010819;28;20565;-85
2023/10/12 07:02:24;;;;;;;11.57;2.10;;;;;;;;;;5008299;28;20050;-84
2023/10/12 07:04:54;;;;;;;13.48;2.33;;;;;;;;;;5012726;28;20076;-85
2023/10/12 07:07:27;;;;;;;20.95;2.33;;;;;;;;;;4999634;28;20072;-85
2023/10/12 07:09:59;;;;;;;15.07;1.98;;;;;;;;;;5000478;28;20776;-88
2023/10/12 07:12:26;;;;;;;12.27;1.95;;;;;;;;;;5013566;28;20424;-88
2023/10/12 07:14:55;;;;;;;12.00;2.35;;;;;;;;;;4981452;28;20123;-88
2023/10/12 07:17:34;;;;;;;7.75;2.08;;;;;;;;;;5004026;28;20037;-86
2023/10/12 07:20:00;;;;;;;11.43;2.00;;;;;;;;;;4986994;28;20046;-83
2023/10/12 07:22:35;;;;;;;12.45;2.50;;;;;;;;;;5000517;28;20493;-83
2023/10/12 07:25:05;;;;;;;13.40;3.15;;;;;;;;;;4982461;28;20053;-81
2023/10/12 07:27:48;;;;;;;9.05;2.30;;;;;;;;;;4982748;28;20535;-83
2023/10/12 07:30:22;;;;;;;10.15;2.08;;;;;;;;;;4980575;28;20397;-83
2023/10/12 07:32:59;;;;;;;17.45;2.63;;;;;;;;;;5004009;28;20048;-83
2023/10/12 07:35:32;;;;;;;13.05;2.72;;;;;;;;;;5006882;28;20062;-84
2023/10/12 07:37:58;;;;;;;13.48;2.15;;;;;;;;;;5026318;28;20054;-83
2023/10/12 07:40:25;;;;;;;20.70;2.72;;;;;;;;;;4987430;28;20049;-83
2023/10/12 07:42:52;;;;;;;12.48;1.83;;;;;;;;;;4983163;28;20486;-82
2023/10/12 07:45:18;;;;;;;12.95;2.90;;;;;;;;;;4996718;28;20042;-82
2023/10/12 07:47:58;;;;;;;12.88;1.90;;;;;;;;;;4990724;28;20111;-82
2023/10/12 07:50:25;;;;;;;12.25;2.30;;;;;;;;;;4993146;28;20054;-82
2023/10/12 07:53:08;;;;;;;12.02;1.88;;;;;;;;;;4969320;28;20045;-84
2023/10/12 07:55:41;;;;;;;10.73;2.17;;;;;;;;;;5000394;28;20041;-81
2023/10/12 07:58:12;;;;;;;20.27;2.88;;;;;;;;;;4975241;28;20099;-82
2023/10/12 08:00:41;;;;;;;14.25;1.98;;;;;;;;;;4989235;28;20045;-82
2023/10/12 08:13:15;;;;;;;12.82;1.65;;;;;;;;;;5009480;28;20054;-83
2023/10/12 08:39:39;;;;;;;13.57;2.17;;;;;;;;;;4999898;28;20060;-88
2023/10/12 08:44:49;;;;;;;8.35;1.58;;;;;;;;;;5005563;28;20057;-84
2023/10/12 08:48:01;;;;;;;13.27;1.90;;;;;;;;;;5005430;28;20057;-83
2023/10/12 08:50:08;;;;;;;6.25;1.50;;;;;;;;;;4992778;28;20046;-83
2023/10/12 08:52:38;;;;;;;8.73;1.50;;;;;;;;;;4989676;28;20046;-84
2023/10/12 08:55:11;;;;;;;6.68;1.50;;;;;;;;;;4976079;28;20148;-83
2023/10/12 08:57:55;;;;;;;19.88;2.20;;;;;;;;;;5002370;28;20053;-83
2023/10/12 09:03:24;;;;;;;14.32;2.33;;;;;;;;;;5008912;28;20076;-81
2023/10/12 09:05:59;;;;;;;8.98;1.30;;;;;;;;;;5004573;28;20042;-82
2023/10/12 09:10:57;;;;;;;9.88;1.75;;;;;;;;;;5004432;28;20046;-85
2023/10/12 09:13:28;;;;;;;14.45;2.45;;;;;;;;;;5008227;28;20125;-83
2023/10/12 09:15:59;;;;;;;13.20;2.50;;;;;;;;;;5003216;28;20034;-80
2023/10/12 09:18:29;;;;;;;11.48;2.38;;;;;;;;;;5008907;28;20481;-82
2023/10/12 09:36:29;;;;;;;10.52;2.28;;;;;;;;;;5006995;28;20061;-82
2023/10/12 09:39:00;;;;;;;11.38;1.95;;;;;;;;;;5004653;28;20081;-80
2023/10/12 09:41:29;;;;;;;14.20;2.20;;;;;;;;;;5012797;28;20076;-81
2023/10/12 09:43:57;;;;;;;11.13;2.05;;;;;;;;;;4988382;28;20047;-83
2023/10/12 09:46:25;;;;;;;18.38;3.30;;;;;;;;;;5005004;28;20050;-80
2023/10/12 09:48:58;;;;;;;25.02;2.80;;;;;;;;;;4989224;28;20038;-80
2023/10/12 09:51:25;;;;;;;6.72;1.92;;;;;;;;;;5003401;28;20100;-82
2023/10/12 09:53:59;;;;;;;14.48;2.28;;;;;;;;;;4991629;28;20038;-81
2023/10/12 09:56:33;;;;;;;7.20;1.45;;;;;;;;;;4993173;28;20578;-82
2023/10/12 09:59:13;;;;;;;11.65;1.65;;;;;;;;;;5020035;28;20550;-81
2023/10/12 10:09:56;;;;;;;13.15;2.72;;;;;;;;;;4989120;28;20047;-88
2023/10/12 10:12:35;;;;;;;10.25;1.67;;;;;;;;;;4998425;28;20092;-81
2023/10/12 10:15:10;;;;;;;14.32;2.60;;;;;;;;;;4995751;28;20417;-81
2023/10/12 10:17:46;;;;;;;18.00;1.90;;;;;;;;;;5005657;28;20513;-80
2023/10/12 10:22:56;;;;;;;13.93;2.22;;;;;;;;;;5001185;28;20053;-80
2023/10/12 10:25:27;;;;;;;7.57;2.38;;;;;;;;;;4999747;28;20551;-80
2023/10/12 10:27:56;;;;;;;12.57;2.28;;;;;;;;;;4988933;28;20612;-82
2023/10/12 10:30:25;;;;;;;11.68;1.80;;;;;;;;;;4991677;28;20046;-81
2023/10/12 10:33:13;;;;;;;8.77;1.98;;;;;;;;;;5005627;28;20784;-83
2023/10/12 10:35:54;;;;;;;11.93;1.50;;;;;;;;;;5007398;28;20133;-81
2023/10/12 10:38:21;;;;;;;11.32;1.80;;;;;;;;;;5004528;28;20104;-81
2023/10/12 10:40:50;;;;;;;9.77;1.90;;;;;;;;;;4989817;28;20074;-76
2023/10/12 10:43:16;;;;;;;10.93;2.65;;;;;;;;;;4987357;28;20440;-77
2023/10/12 10:45:53;;;;;;;10.80;1.80;;;;;;;;;;4991704;28;20037;-78
2023/10/12 10:48:20;;;;;;;9.98;2.83;;;;;;;;;;5005117;28;20493;-78
2023/10/12 10:50:50;;;;;;;10.77;1.92;;;;;;;;;;4985556;28;20060;-77
2023/10/12 10:53:18;;;;;;;8.20;2.03;;;;;;;;;;5007011;28;20117;-78
2023/10/12 10:55:47;;;;;;;10.63;1.77;;;;;;;;;;5003191;28;20037;-77
2023/10/12 10:58:17;;;;;;;12.25;2.00;;;;;;;;;;5003064;28;20453;-78
2023/10/12 11:00:46;;;;;;;10.10;1.90;;;;;;;;;;4988965;28;20463;-82
2023/10/12 11:03:16;;;;;;;7.80;1.70;;;;;;;;;;4994599;28;20042;-81
2023/10/12 11:05:46;;;;;;;17.33;2.17;;;;;;;;;;4994058;28;20092;-81
2023/10/12 11:08:21;;;;;;;8.07;1.73;;;;;;;;;;4981508;28;20528;-82
2023/10/12 11:13:33;;;;;;;13.02;1.98;;;;;;;;;;5010668;28;20111;-82
2023/10/12 11:16:28;;;;;;;8.20;1.88;;;;;;;;;;4993592;28;20049;-83
2023/10/12 11:18:55;;;;;;;8.82;1.42;;;;;;;;;;5004638;28;20125;-81
2023/10/12 11:21:27;;;;;;;17.27;2.58;;;;;;;;;;4975500;28;20105;-82
2023/10/12 11:24:03;;;;;;;7.90;1.42;;;19.00;99.90;;;;;;5008139;28;20038;-83
2023/10/12 11:26:39;;;;;;;10.82;2.50;;;;;;;;;;5002090;28;20054;-82
2023/10/12 11:29:11;;;;;;;10.18;1.80;;;;;;;;;;4998211;28;20048;-82
2023/10/12 11:31:37;;;;;;;8.13;1.73;;;;;;;;;;5005407;28;20037;-83
2023/10/12 11:34:12;;;;;;;9.30;1.50;;;;;;;;;;5013387;28;20498;-83
2023/10/12 11:36:38;;;;;;;10.55;1.58;;;;;;;;;;4978333;28;20112;-83
2023/10/12 11:39:16;;;;;;;10.75;2.17;;;;;;;;;;5000801;28;20049;-83
2023/10/12 11:42:02;;;;;;;11.85;1.75;;;20.00;99.90;;;;;;4991675;28;20049;-84
2023/10/12 11:44:35;;;;;;;8.80;1.52;;;;;;;;;;5027585;28;20511;-83
2023/10/12 11:47:06;;;;;;;8.15;1.80;;;;;;;;;;5011208;28;20152;-81
2023/10/12 11:49:47;;;;;;;17.77;1.80;;;;;;;;;;5009640;28;20048;-81
2023/10/12 11:55:18;;;;;;;9.02;2.08;;;19.80;99.90;;;;;;5000627;28;20038;-80
2023/10/12 11:57:59;;;;;;;12.40;1.98;;;;;;;;;;4991743;28;20322;-80
2023/10/12 12:00:36;;;;;;;10.35;2.00;;;;;;;;;;4985660;28;20698;-80
2023/10/12 12:03:08;;;;;;;8.73;2.20;;;;;;;;;;4988343;28;20505;-82
2023/10/12 12:05:36;;;;;;;6.47;1.80;;;;;;;;;;4975290;28;20474;-81
2023/10/12 12:08:24;;;;;;;11.90;3.20;;;;;;;;;;5004703;28;20140;-80
2023/10/12 12:13:21;;;;;;;6.90;1.50;;;;;;;;;;5023907;28;20129;-80
2023/10/12 12:15:48;;;;;;;7.45;2.20;;;20.40;99.90;;;;;;4979435;28;20132;-79
2023/10/12 12:20:44;;;;;;;8.93;1.63;;;;;;;;;;4989159;28;20053;-80
2023/10/12 12:23:13;;;;;;;10.90;2.25;;;;;;;;;;5000667;28;20050;-80
2023/10/12 12:25:42;;;;;;;8.77;1.60;;;;;;;;;;4989675;28;20124;-81
2023/10/12 12:28:14;;;;;;;9.30;1.52;;;;;;;;;;4998588;28;20043;-81
2023/10/12 12:30:46;;;;;;;5.68;1.70;;;;;;;;;;4992141;28;20137;-82
2023/10/12 12:33:15;;;;;;;7.45;1.30;;;;;;;;;;4990910;28;20076;-82
2023/10/12 12:35:45;;;;;;;9.38;1.95;;;;;;;;;;5013522;28;20414;-81
2023/10/12 12:40:52;;;;;;;11.40;2.25;;;;;;;;;;5004113;28;20413;-80
2023/10/12 12:43:20;;;;;;;8.80;2.17;;;;;;;;;;5005055;28;20483;-79
2023/10/12 12:45:46;;;;;;;14.45;1.98;;;;;;;;;;4996928;28;20064;-80
2023/10/12 12:48:12;;;;;;;10.13;1.95;;;;;;;;;;4986263;28;20465;-78
2023/10/12 12:50:38;;;;;;;8.73;1.92;;;;;;;;;;4984498;28;20136;-80
2023/10/12 12:53:07;;;;;;;13.52;1.80;;;;;;;;;;4998802;28;20041;-80
2023/10/12 12:55:38;;;;;;;9.07;1.67;;;;;;;;;;5007670;28;20132;-80
2023/10/12 12:58:09;;;;;;;8.70;1.80;;;;;;;;;;4990694;28;20531;-80
2023/10/12 13:00:37;;;;;;;6.80;1.67;;;;;;;;;;4981636;28;20049;-80
2023/10/12 13:03:03;;;;;;;9.43;2.20;;;;;;;;;;4990506;28;20042;-81
2023/10/12 13:05:33;;;;;;;12.45;2.28;;;;;;;;;;5018686;28;20084;-78
2023/10/12 13:08:00;;;;;;;11.75;1.70;;;;;;;;;;4984226;28;20125;-80
2023/10/12 13:10:26;;;;;;;9.90;2.40;;;;;;;;;;5006246;28;20046;-80
2023/10/12 13:12:53;;;;;;;10.07;2.00;;;;;;;;;;4999919;28;20112;-81
2023/10/12 13:15:19;;;;;;;9.45;2.40;;;;;;;;;;5007677;28;20061;-81
2023/10/12 13:17:47;;;;;;;11.63;1.88;;;;;;;;;;5002534;28;20504;-81
2023/10/12 13:20:28;;;;;;;11.07;1.67;;;;;;;;;;4992680;28;20049;-78
2023/10/12 13:22:55;;;;;;;11.48;1.85;;;;;;;;;;5009696;28;20053;-79
2023/10/12 13:25:21;;;;;;;14.48;2.63;;;;;;;;;;4994175;28;20187;-79
2023/10/12 13:27:51;;;;;;;25.73;3.35;;;;;;;;;;4983339;28;20484;-78
2023/10/12 13:30:18;;;;;;;11.23;1.95;;;;;;;;;;4998965;28;20033;-78
2023/10/12 13:32:47;;;;;;;10.98;1.75;;;;;;;;;;4992159;28;20037;-79
2023/10/12 13:35:31;;;;;;;8.93;1.77;;;;;;;;;;5015460;28;20054;-77
2023/10/12 13:38:03;;;;;;;;;;;17.20;99.90;;;;;;5003517;28;20089;-79
2023/10/12 13:40:30;;;;;;;9.45;1.92;;;;;;;;;;4982015;28;20345;-79
2023/10/12 13:43:06;;;;;;;10.80;1.80;;;;;;;;;;4993420;28;20567;-78
2023/10/12 13:45:32;;;;;;;11.98;2.75;;;;;;;;;;5015489;28;20517;-79
2023/10/12 13:47:58;;;;;;;8.50;1.52;;;;;;;;;;5006605;28;20042;-78
2023/10/12 13:50:24;;;;;;;11.90;2.20;;;;;;;;;;4988095;28;20147;-78
2023/10/12 13:52:52;;;;;;;9.43;1.90;;;;;;;;;;4997883;28;20064;-78
2023/10/12 13:55:19;;;;;;;6.50;2.03;;;;;;;;;;4995499;28;20037;-79
2023/10/12 13:57:51;;;;;;;27.60;2.28;;;;;;;;;;4988175;28;20051;-79
2023/10/12 14:00:26;;;;;;;7.88;2.08;;;;;;;;;;4992909;28;20049;-77
2023/10/12 14:02:56;;;;;;;7.90;2.10;;;;;;;;;;5004399;28;20044;-78
2023/10/12 14:05:29;;;;;;;11.70;2.20;;;;;;;;;;4993953;28;20038;-81
2023/10/12 14:07:58;;;;;;;12.23;2.13;;;;;;;;;;5002178;28;20055;-78
2023/10/12 14:10:26;;;;;;;12.15;2.05;;;;;;;;;;5000928;28;20030;-79
2023/10/12 14:12:53;;;;;;;10.15;1.83;;;;;;;;;;5010550;28;20096;-79
2023/10/12 14:15:24;;;;;;;13.15;2.20;;;;;;;;;;4981191;28;20552;-79
2023/10/12 14:17:54;;;;;;;12.23;2.92;;;;;;;;;;5003248;28;20130;-78
2023/10/12 14:20:28;;;;;;;8.10;2.10;;;;;;;;;;5000906;28;20041;-78
2023/10/12 14:22:57;;;;;;;;;;;16.60;99.90;;;;;;4986323;28;20415;-77
2023/10/12 14:25:27;;;;;;;12.48;2.25;;;;;;;;;;5015722;28;19921;-79
2023/10/12 14:27:54;;;;;;;11.73;2.13;;;;;;;;;;4985834;28;20038;-78
2023/10/12 14:30:28;;;;;;;10.20;2.17;;;;;;;;;;4997869;28;20396;-81
2023/10/12 14:32:54;;;;;;;10.30;2.22;;;;;;;;;;5007761;28;20125;-80
2023/10/12 14:35:21;;;;;;;10.63;2.00;;;;;;;;;;5011850;28;20076;-79
2023/10/12 14:37:47;;;;;;;7.85;2.30;;;;;;;;;;4987339;28;20417;-80
2023/10/12 14:40:19;;;;;;;8.45;2.25;;;;;;;;;;5003919;28;20116;-81
2023/10/12 14:42:45;;;;;;;10.05;1.85;;;;;;;;;;4987445;28;20057;-80
2023/10/12 14:45:15;;;;;;;9.98;2.33;;;;;;;;;;5020965;28;20049;-79
2023/10/12 14:47:44;;;;;;;18.00;2.60;;;;;;;;;;4981313;28;20049;-80
2023/10/12 14:50:16;;;;;;;8.80;1.85;;;;;;;;;;4991970;28;20046;-78
2023/10/12 14:52:45;;;;;;;9.60;2.17;;;;;;;;;;5009817;28;20441;-79
2023/10/12 14:55:11;;;;;;;10.75;1.52;;;;;;;;;;5004070;28;20037;-79
2023/10/12 14:57:41;;;;;;;9.23;2.17;;;;;;;;;;4995741;28;20049;-81
2023/10/12 15:00:22;;;;;;;11.48;2.30;;;;;;;;;;4995924;28;20127;-79
2023/10/12 15:02:53;;;;;;;6.00;1.73;;;;;;;;;;5005553;28;20042;-80
2023/10/12 15:05:20;;;;;;;9.68;2.38;;;;;;;;;;5013906;28;20033;-80
2023/10/12 15:07:49;;;;;;;18.65;2.60;;;;;;;;;;5013173;28;20571;-80
2023/10/12 15:10:19;;;;;;;17.35;2.42;;;;;;;;;;5011371;28;20060;-80
2023/10/12 15:12:48;;;;;;;17.73;2.92;;;;;;;;;;5010449;28;20080;-79
2023/10/12 15:15:27;;;;;;;14.05;2.53;;;;;;;;;;4988971;28;20110;-80
2023/10/12 15:17:54;;;;;;;15.80;3.67;;;;;;;;;;5007357;28;20928;-79
2023/10/12 15:20:26;;;;;;;12.38;2.45;;;;;;;;;;4993004;28;20045;-79
2023/10/12 15:22:55;;;;;;;12.32;2.70;;;;;;;;;;4977309;28;20045;-80
2023/10/12 15:25:21;;;;;;;14.38;2.40;;;;;;;;;;5001334;28;20041;-81
2023/10/12 15:27:49;;;;;;;12.23;2.13;;;;;;;;;;5006593;28;20038;-81
2023/10/12 15:30:15;;;;;;;7.10;1.50;;;;;;;;;;5005017;28;20111;-81
2023/10/12 15:32:42;;;;;;;9.48;2.35;;;;;;;;;;5003945;28;20378;-81
2023/10/12 15:35:11;;;;;;;15.02;3.30;;;;;;;;;;4999366;28;20040;-81
2023/10/12 15:37:40;;;;;;;20.77;2.75;;;;;;;;;;4988909;28;20053;-80
2023/10/12 15:40:11;;;;;;;10.98;2.55;;;;;;;;;;4999084;28;20042;-80
2023/10/12 15:42:37;;;;;;;13.35;2.10;;;;;;;;;;4994180;28;20052;-82
2023/10/12 15:45:04;;;;;;;19.00;2.45;;;;;;;;;;5005274;28;20463;-84
2023/10/12 15:47:30;;;;;;;8.90;2.15;;;;;;;;;;4993425;28;20052;-84
2023/10/12 15:49:58;;;;;;;10.18;1.52;;;;;;;;;;5004682;28;20030;-84
2023/10/12 15:52:24;;;;;;;11.15;1.90;;;;;;;;;;4988020;28;20045;-84
2023/10/12 15:54:51;;;;;;;12.90;2.38;;;;;;;;;;4977602;28;20033;-84
2023/10/12 15:57:17;;;;;;;12.30;1.60;;;;;;;;;;5001851;28;20046;-83
2023/10/12 15:59:44;;;;;;;11.13;2.42;;;;;;;;;;5006668;28;20117;-84
2023/10/12 16:02:11;;;;;;;7.95;1.70;;;;;;;;;;4991107;28;20045;-83
2023/10/12 16:04:38;;;;;;;7.18;1.60;;;;;;;;;;5018657;28;20049;-83
2023/10/12 16:07:07;;;;;;;13.07;2.75;;;;;;;;;;5000347;28;20500;-82
2023/10/12 16:09:34;;;;;;;7.88;1.83;;;;;;;;;;4985750;28;20041;-83
2023/10/12 16:12:00;;;;;;;11.20;1.75;;;;;;;;;;5003939;28;20061;-84
2023/10/12 16:14:26;;;;;;;10.32;1.75;;;;;;;;;;4986229;28;20041;-83
2023/10/12 16:16:53;;;;;;;12.07;1.70;;;;;;;;;;4971517;28;20156;-85
2023/10/12 16:19:19;;;;;;;10.88;2.35;;;;;;;;;;4983492;28;20041;-82
2023/10/12 16:21:45;;;;;;;11.38;1.98;;;;;;;;;;4996523;28;20397;-86
2023/10/12 16:24:12;;;;;;;14.50;2.70;;;;;;;;;;4976703;28;20083;-81
2023/10/12 16:26:38;;;;;;;11.40;2.00;;;;;;;;;;4979725;28;20046;-82
2023/10/12 16:29:07;;;;;;;10.13;2.38;;;;;;;;;;4980743;28;20045;-80
2023/10/12 16:31:37;;;;;;;7.93;1.92;;;;;;;;;;4988408;28;20049;-80
2023/10/12 16:34:06;;;;;;;10.48;2.10;;;;;;;;;;4973640;28;20524;-80
2023/10/12 16:36:32;;;;;;;12.85;2.05;;;;;;;;;;5000015;28;20054;-80
2023/10/12 16:39:03;;;;;;;14.15;2.20;;;;;;;;;;5004356;28;20053;-80
2023/10/12 16:41:29;;;;;;;9.32;2.70;;;;;;;;;;4978809;28;20034;-79
2023/10/12 16:43:55;;;;;;;10.82;1.92;;;;;;;;;;4992360;28;20049;-81
2023/10/12 16:46:24;;;;;;;11.40;1.90;;;;;;;;;;4987158;28;20041;-82
2023/10/12 16:48:51;;;;;;;6.20;1.80;;;;;;;;;;4992705;28;20052;-82
2023/10/12 16:51:20;;;;;;;8.65;2.05;;;;;;;;;;4975625;28;20079;-79
2023/10/12 16:53:46;;;;;;;15.70;2.10;;;;;;;;;;4987070;28;20105;-79
2023/10/12 16:56:15;;;;;;;10.40;2.10;;;;;;;;;;4985198;28;20413;-79
2023/10/12 16:58:41;;;;;;;13.07;2.13;;;;;;;;;;4988016;28;20041;-80
2023/10/12 17:01:09;;;;;;;11.85;2.42;;;;;;;;;;4989359;28;20053;-77
2023/10/12 17:03:37;;;;;;;9.82;2.30;;;;;;;;;;4982845;28;20045;-79
2023/10/12 17:06:06;;;;;;;11.98;2.78;;;;;;;;;;4989547;28;20042;-80
2023/10/12 17:08:33;;;;;;;13.65;2.25;;;;;;;;;;5008418;28;20064;-79
2023/10/12 17:11:05;;;;;;;8.15;2.25;;;;;;;;;;4990780;28;20129;-79
2023/10/12 17:13:32;;;;;;;8.20;1.90;;;;;;;;;;5015006;28;20034;-79
2023/10/12 17:16:00;;;;;;;14.55;3.30;;;;;;;;;;4986185;28;20046;-80
2023/10/12 17:18:26;;;;;;;11.45;2.13;;;;;;;;;;4978171;28;20037;-79
2023/10/12 17:20:52;;;;;;;10.15;2.33;;;;;;;;;;4990446;28;20039;-81
2023/10/12 17:23:20;;;;;;;8.63;2.53;;;;;;;;;;4992747;28;20472;-78